createdAt,value
2022-08-11T00:01:57.302Z,16.80
2022-08-11T00:04:26.294Z,16.80
2022-08-11T00:06:54.304Z,16.80
2022-08-11T00:09:24.181Z,16.50
2022-08-11T00:11:58.432Z,16.50
2022-08-11T00:14:37.608Z,16.40
2022-08-11T00:17:08.054Z,16.30
2022-08-11T00:20:13.392Z,16.30
2022-08-11T00:22:24.635Z,16.30
2022-08-11T00:24:55.984Z,16.20
2022-08-11T00:27:37.363Z,16.20
2022-08-11T00:30:05.656Z,16.20
2022-08-11T00:32:33.678Z,16.10
2022-08-11T00:35:55.152Z,15.90
2022-08-11T00:37:50.647Z,15.90
2022-08-11T00:40:20.984Z,15.90
2022-08-11T00:43:02.801Z,15.90
2022-08-11T00:45:32.974Z,15.80
2022-08-11T00:48:04.878Z,15.70
2022-08-11T00:50:39.433Z,15.60
2022-08-11T00:53:26.093Z,15.50
2022-08-11T00:56:17.910Z,15.60
2022-08-11T00:59:34.084Z,15.50
2022-08-11T01:01:59.743Z,15.50
2022-08-11T01:05:07.213Z,15.40
2022-08-11T01:08:13.045Z,15.40
2022-08-11T01:10:55.792Z,15.30
2022-08-11T01:13:40.229Z,15.30
2022-08-11T01:16:15.052Z,15.30
2022-08-11T01:19:18.490Z,15.30
2022-08-11T01:22:24.763Z,15.30
2022-08-11T01:25:57.041Z,15.20
2022-08-11T01:28:57.336Z,15.20
2022-08-11T01:32:06.003Z,15.20
2022-08-11T01:35:18.836Z,15.10
2022-08-11T01:38:17.420Z,15.00
2022-08-11T01:41:13.110Z,14.90
2022-08-11T01:44:34.740Z,14.80
2022-08-11T01:47:09.975Z,14.90
2022-08-11T01:50:08.364Z,14.90
2022-08-11T01:52:34.870Z,14.80
2022-08-11T01:55:14.167Z,14.80
2022-08-11T01:57:58.337Z,14.70
2022-08-11T02:00:28.891Z,14.70
2022-08-11T02:03:01.980Z,14.60
2022-08-11T02:05:44.295Z,14.60
2022-08-11T02:08:16.101Z,14.60
2022-08-11T02:11:07.045Z,14.60
2022-08-11T02:13:38.482Z,14.50
2022-08-11T02:16:15.019Z,14.40
2022-08-11T02:19:00.982Z,14.40
2022-08-11T02:21:48.029Z,14.40
2022-08-11T02:24:18.263Z,14.40
2022-08-11T02:26:48.508Z,14.30
2022-08-11T02:29:19.722Z,14.60
2022-08-11T02:32:24.670Z,14.70
2022-08-11T02:35:02.685Z,14.60
2022-08-11T02:37:45.247Z,14.80
2022-08-11T02:40:20.944Z,14.90
2022-08-11T02:42:57.324Z,14.50
2022-08-11T02:45:40.565Z,14.40
2022-08-11T02:48:31.854Z,14.30
2022-08-11T02:51:07.517Z,14.30
2022-08-11T02:53:39.005Z,14.30
2022-08-11T02:56:09.789Z,14.20
2022-08-11T02:58:45.154Z,14.10
2022-08-11T03:01:16.861Z,14.20
2022-08-11T03:03:51.254Z,14.30
2022-08-11T03:06:25.451Z,14.40
2022-08-11T03:08:55.933Z,14.30
2022-08-11T03:11:50.487Z,14.40
2022-08-11T03:14:40.902Z,14.30
2022-08-11T03:17:17.519Z,14.10
2022-08-11T03:19:50.727Z,13.90
2022-08-11T03:22:22.093Z,14.10
2022-08-11T03:24:57.591Z,14.00
2022-08-11T03:27:31.642Z,13.70
2022-08-11T03:30:07.995Z,13.70
2022-08-11T03:32:39.217Z,13.90
2022-08-11T03:35:06.479Z,13.90
2022-08-11T03:37:54.356Z,13.90
2022-08-11T03:41:01.415Z,13.90
2022-08-11T03:43:39.127Z,13.90
2022-08-11T03:46:24.976Z,13.80
2022-08-11T03:48:58.371Z,13.70
2022-08-11T03:51:28.543Z,13.80
2022-08-11T03:54:21.469Z,13.60
2022-08-11T03:57:28.060Z,13.60
2022-08-11T04:00:15.854Z,13.80
2022-08-11T04:03:21.160Z,13.70
2022-08-11T04:06:22.434Z,13.50
2022-08-11T04:09:16.912Z,13.50
2022-08-11T04:11:59.730Z,13.50
2022-08-11T04:14:56.407Z,13.50
2022-08-11T04:18:00.346Z,13.50
2022-08-11T04:21:01.318Z,13.50
2022-08-11T04:24:34.930Z,13.70
2022-08-11T04:27:14.445Z,13.60
2022-08-11T04:30:05.061Z,13.70
2022-08-11T04:33:23.811Z,13.80
2022-08-11T04:35:55.278Z,13.60
2022-08-11T04:38:39.742Z,13.80
2022-08-11T04:42:10.341Z,13.50
2022-08-11T04:45:16.911Z,13.50
2022-08-11T04:48:16.594Z,13.40
2022-08-11T04:51:17.765Z,13.40
2022-08-11T04:54:28.756Z,13.40
2022-08-11T04:57:17.304Z,13.60
2022-08-11T05:00:24.156Z,13.40
2022-08-11T05:03:37.440Z,13.60
2022-08-11T05:06:29.859Z,13.50
2022-08-11T05:09:15.072Z,13.70
2022-08-11T05:12:13.587Z,13.90
2022-08-11T05:15:04.536Z,14.00
2022-08-11T05:17:56.705Z,14.10
2022-08-11T05:20:43.901Z,14.20
2022-08-11T05:23:29.561Z,14.30
2022-08-11T05:26:45.981Z,14.00
2022-08-11T05:29:24.617Z,13.90
2022-08-11T05:32:14.194Z,13.80
2022-08-11T05:35:09.828Z,13.80
2022-08-11T05:37:42.597Z,13.60
2022-08-11T05:40:29.866Z,13.70
2022-08-11T05:43:18.556Z,13.70
2022-08-11T05:46:07.053Z,13.80
2022-08-11T05:48:54.780Z,13.80
2022-08-11T05:51:52.461Z,13.90
2022-08-11T05:54:40.406Z,14.00
2022-08-11T05:57:09.047Z,14.00
2022-08-11T05:59:38.429Z,14.00
2022-08-11T06:02:07.121Z,14.00
2022-08-11T06:04:35.137Z,14.10
2022-08-11T06:07:04.204Z,14.10
2022-08-11T06:09:33.921Z,14.10
2022-08-11T06:12:03.907Z,14.10
2022-08-11T06:14:31.894Z,14.00
2022-08-11T06:17:02.471Z,14.10
2022-08-11T06:19:35.287Z,14.10
2022-08-11T06:22:04.679Z,14.10
2022-08-11T06:24:33.421Z,14.10
2022-08-11T06:27:12.275Z,14.20
2022-08-11T06:29:52.544Z,14.10
2022-08-11T06:32:25.561Z,14.30
2022-08-11T06:35:24.925Z,14.30
2022-08-11T06:38:03.924Z,14.30
2022-08-11T06:40:39.305Z,14.30
2022-08-11T06:43:11.940Z,14.30
2022-08-11T06:45:43.179Z,14.40
2022-08-11T06:48:17.136Z,14.50
2022-08-11T06:51:18.838Z,14.60
2022-08-11T06:54:03.259Z,14.70
2022-08-11T07:00:09.017Z,14.90
2022-08-11T07:02:39.240Z,15.00
2022-08-11T07:05:11.619Z,15.10
2022-08-11T07:08:35.182Z,15.20
2022-08-11T07:11:30.512Z,15.20
2022-08-11T07:14:20.449Z,15.30
2022-08-11T07:16:49.560Z,15.50
2022-08-11T07:19:36.534Z,15.70
2022-08-11T07:22:23.412Z,15.80
2022-08-11T07:25:14.528Z,16.00
2022-08-11T07:28:01.707Z,16.10
2022-08-11T07:30:29.764Z,16.40
2022-08-11T07:32:59.463Z,16.40
2022-08-11T07:35:29.724Z,16.60
2022-08-11T07:38:01.606Z,16.80
2022-08-11T07:40:30.196Z,17.00
2022-08-11T07:42:58.713Z,17.50
2022-08-11T07:45:44.441Z,18.00
2022-08-11T07:48:29.797Z,18.50
2022-08-11T07:51:16.172Z,18.80
2022-08-11T07:54:03.061Z,19.10
2022-08-11T07:56:54.332Z,19.60
2022-08-11T08:00:03.656Z,20.00
2022-08-11T08:02:45.457Z,20.40
2022-08-11T08:05:31.104Z,20.60
2022-08-11T08:08:17.346Z,21.20
2022-08-11T08:11:04.454Z,21.70
2022-08-11T08:13:50.771Z,21.90
2022-08-11T08:16:36.327Z,22.10
2022-08-11T08:19:04.364Z,22.40
2022-08-11T08:21:32.436Z,22.50
2022-08-11T08:24:00.703Z,22.80
2022-08-11T08:26:51.851Z,23.00
2022-08-11T08:29:37.302Z,23.00
2022-08-11T08:32:05.543Z,23.30
2022-08-11T08:34:33.889Z,23.50
2022-08-11T08:37:01.949Z,23.60
2022-08-11T08:39:30.192Z,23.70
2022-08-11T08:41:59.557Z,23.50
2022-08-11T08:44:38.358Z,23.80
2022-08-11T08:47:09.078Z,24.30
2022-08-11T08:49:40.406Z,24.30
2022-08-11T08:52:42.707Z,24.10
2022-08-11T08:54:57.872Z,24.20
2022-08-11T08:57:29.199Z,24.40
2022-08-11T08:59:57.092Z,24.40
2022-08-11T09:02:34.654Z,24.60
2022-08-11T09:05:03.821Z,24.70
2022-08-11T09:07:38.932Z,25.10
2022-08-11T09:10:09.769Z,25.60
2022-08-11T09:12:40.417Z,25.40
2022-08-11T09:15:11.594Z,25.40
2022-08-11T09:17:42.484Z,25.40
2022-08-11T09:20:13.068Z,25.50
2022-08-11T09:23:35.235Z,25.50
2022-08-11T09:26:05.161Z,25.70
2022-08-11T09:28:35.602Z,25.80
2022-08-11T09:31:03.541Z,26.10
2022-08-11T09:33:31.472Z,26.50
2022-08-11T09:36:19.307Z,26.60
2022-08-11T09:39:04.589Z,26.40
2022-08-11T09:42:00.879Z,26.50
2022-08-11T09:44:39.329Z,26.30
2022-08-11T09:47:08.249Z,26.10
2022-08-11T09:49:36.068Z,26.50
2022-08-11T09:52:06.700Z,26.50
2022-08-11T09:54:34.675Z,26.60
2022-08-11T09:57:20.142Z,26.80
2022-08-11T09:59:49.370Z,26.80
2022-08-11T10:02:20.113Z,26.80
2022-08-11T10:04:48.513Z,27.10
2022-08-11T10:07:16.564Z,27.50
2022-08-11T10:09:46.539Z,27.70
2022-08-11T10:12:17.191Z,27.40
2022-08-11T10:15:03.666Z,27.40
2022-08-11T10:17:35.110Z,27.50
2022-08-11T10:20:05.923Z,27.50
2022-08-11T10:22:52.750Z,27.20
2022-08-11T10:25:38.501Z,27.40
2022-08-11T10:28:28.662Z,27.70
2022-08-11T10:31:13.811Z,27.10
2022-08-11T10:34:01.762Z,27.40
2022-08-11T10:36:30.831Z,27.40
2022-08-11T10:38:58.896Z,27.70
2022-08-11T10:42:02.875Z,27.80
2022-08-11T10:44:34.069Z,27.70
2022-08-11T10:47:20.285Z,28.00
2022-08-11T10:50:09.523Z,28.00
2022-08-11T10:52:55.694Z,28.10
2022-08-11T10:55:41.513Z,27.90
2022-08-11T10:58:27.434Z,27.90
2022-08-11T11:00:56.970Z,28.10
2022-08-11T11:03:25.968Z,28.00
2022-08-11T11:06:27.681Z,28.00
2022-08-11T11:08:58.860Z,28.10
2022-08-11T11:11:45.883Z,28.00
2022-08-11T11:14:31.682Z,28.10
2022-08-11T11:17:20.887Z,28.30
2022-08-11T11:19:48.710Z,28.30
2022-08-11T11:22:35.591Z,28.30
2022-08-11T11:25:09.870Z,28.00
2022-08-11T11:27:46.512Z,28.00
2022-08-11T11:30:15.359Z,28.00
2022-08-11T11:32:49.120Z,28.10
2022-08-11T11:35:27.834Z,28.00
2022-08-11T11:38:04.418Z,28.20
2022-08-11T11:40:33.110Z,28.30
2022-08-11T11:43:01.038Z,28.50
2022-08-11T11:45:28.918Z,28.30
2022-08-11T11:47:59.619Z,28.30
2022-08-11T11:50:31.829Z,28.00
2022-08-11T11:53:03.027Z,28.20
2022-08-11T11:55:31.020Z,28.40
2022-08-11T11:58:18.695Z,28.40
2022-08-11T12:01:04.245Z,28.50
2022-08-11T12:03:32.209Z,28.30
2022-08-11T12:06:00.064Z,28.20
2022-08-11T12:08:29.251Z,28.30
2022-08-11T12:11:12.938Z,28.40
2022-08-11T12:13:43.501Z,28.40
2022-08-11T12:16:33.060Z,28.60
2022-08-11T12:19:00.272Z,28.40
2022-08-11T12:21:28.395Z,28.70
2022-08-11T12:24:16.013Z,28.60
2022-08-11T12:27:16.504Z,28.80
2022-08-11T12:29:50.060Z,29.00
2022-08-11T12:32:22.410Z,28.80
2022-08-11T12:34:50.350Z,28.90
2022-08-11T12:37:23.586Z,28.90
2022-08-11T12:40:49.525Z,28.80
2022-08-11T12:43:21.581Z,28.50
2022-08-11T12:45:50.278Z,28.50
2022-08-11T12:48:59.078Z,28.50
2022-08-11T12:52:12.225Z,28.70
2022-08-11T12:54:34.952Z,28.60
2022-08-11T12:57:36.634Z,28.60
2022-08-11T13:00:24.179Z,28.60
2022-08-11T13:03:09.737Z,28.60
2022-08-11T13:05:44.983Z,28.70
2022-08-11T13:08:13.864Z,28.60
2022-08-11T13:10:59.412Z,28.40
2022-08-11T13:13:54.496Z,28.50
2022-08-11T13:16:16.420Z,28.70
2022-08-11T13:18:44.285Z,28.80
2022-08-11T13:21:12.222Z,28.80
2022-08-11T13:23:59.941Z,28.80
2022-08-11T13:26:43.154Z,28.70
2022-08-11T13:29:23.486Z,28.70
2022-08-11T13:31:51.658Z,28.80
2022-08-11T13:34:20.178Z,29.00
2022-08-11T13:36:49.045Z,29.00
2022-08-11T13:39:16.917Z,28.80
2022-08-11T13:41:45.727Z,28.40
2022-08-11T13:44:23.139Z,28.20
2022-08-11T13:46:53.019Z,28.20
2022-08-11T13:49:21.166Z,28.20
2022-08-11T13:51:49.001Z,28.30
2022-08-11T13:54:18.781Z,28.20
2022-08-11T13:56:47.860Z,28.30
2022-08-11T13:59:16.103Z,28.20
2022-08-11T14:02:19.166Z,28.20
2022-08-11T14:04:40.383Z,28.10
2022-08-11T14:07:10.122Z,28.20
2022-08-11T14:09:38.853Z,28.30
2022-08-11T14:12:27.847Z,28.40
2022-08-11T14:15:04.475Z,28.30
2022-08-11T14:17:47.831Z,28.10
2022-08-11T14:20:39.131Z,27.90
2022-08-11T14:23:05.761Z,27.90
2022-08-11T14:26:00.456Z,28.00
2022-08-11T14:28:33.585Z,28.10
2022-08-11T14:31:05.320Z,28.30
2022-08-11T14:33:59.282Z,28.20
2022-08-11T14:36:23.815Z,28.30
2022-08-11T14:38:51.630Z,28.10
2022-08-11T14:41:36.950Z,28.00
2022-08-11T14:44:22.895Z,27.70
2022-08-11T14:47:23.293Z,27.60
2022-08-11T14:50:09.564Z,27.60
2022-08-11T14:52:40.002Z,27.80
2022-08-11T14:55:26.132Z,27.80
2022-08-11T14:57:55.085Z,27.80
2022-08-11T15:00:24.496Z,27.80
2022-08-11T15:03:10.213Z,27.90
2022-08-11T15:05:40.090Z,27.90
2022-08-11T15:08:09.471Z,27.80
2022-08-11T15:10:37.416Z,27.50
2022-08-11T15:13:05.815Z,27.50
2022-08-11T15:15:51.960Z,27.50
2022-08-11T15:18:20.827Z,27.40
2022-08-11T15:21:06.592Z,27.50
2022-08-11T15:23:53.423Z,27.50
2022-08-11T15:26:46.065Z,27.40
2022-08-11T15:29:31.957Z,27.30
2022-08-11T15:32:17.683Z,27.30
2022-08-11T15:35:03.980Z,27.30
2022-08-11T15:37:35.385Z,27.20
2022-08-11T15:40:32.811Z,27.20
2022-08-11T15:43:21.388Z,27.10
2022-08-11T15:45:53.146Z,27.00
2022-08-11T15:48:35.904Z,27.00
2022-08-11T15:51:09.181Z,26.90
2022-08-11T15:53:41.427Z,26.90
2022-08-11T15:56:11.130Z,26.80
2022-08-11T15:59:16.315Z,26.70
2022-08-11T16:02:04.985Z,26.60
2022-08-11T16:04:32.893Z,26.50
2022-08-11T16:07:01.801Z,26.50
2022-08-11T16:09:46.983Z,26.30
2022-08-11T16:12:18.606Z,26.30
2022-08-11T16:15:07.152Z,26.20
2022-08-11T16:17:36.297Z,26.10
2022-08-11T16:20:04.584Z,26.10
2022-08-11T16:22:38.552Z,26.00
2022-08-11T16:27:03.580Z,25.90
2022-08-11T16:27:58.361Z,25.90
2022-08-11T16:30:26.374Z,25.80
2022-08-11T16:32:54.239Z,25.80
2022-08-11T16:35:47.307Z,25.80
2022-08-11T16:38:32.617Z,25.80
2022-08-11T16:41:01.389Z,25.60
2022-08-11T16:43:49.121Z,25.40
2022-08-11T16:46:32.185Z,25.30
2022-08-11T16:49:00.588Z,25.30
2022-08-11T16:51:28.483Z,25.20
2022-08-11T16:54:05.292Z,25.30
2022-08-11T16:56:35.974Z,25.30
2022-08-11T16:59:17.034Z,25.20
2022-08-11T17:01:53.301Z,25.10
2022-08-11T17:04:43.840Z,25.00
2022-08-11T17:07:41.643Z,25.00
2022-08-11T17:10:51.104Z,25.00
2022-08-11T17:13:20.433Z,24.80
2022-08-11T17:16:09.369Z,24.80
2022-08-11T17:18:41.157Z,24.70
2022-08-11T17:21:09.008Z,24.70
2022-08-11T17:23:48.073Z,24.60
2022-08-11T17:26:18.171Z,24.40
2022-08-11T17:28:46.262Z,24.50
2022-08-11T17:31:32.976Z,24.40
2022-08-11T17:34:18.493Z,24.50
2022-08-11T17:36:47.149Z,24.40
2022-08-11T17:39:15.104Z,24.30
2022-08-11T17:42:00.420Z,24.20
2022-08-11T17:44:42.251Z,24.20
2022-08-11T17:47:29.144Z,24.10
2022-08-11T17:49:57.051Z,24.00
2022-08-11T17:53:01.784Z,24.00
2022-08-11T17:55:51.639Z,23.90
2022-08-11T17:58:39.059Z,23.90
2022-08-11T18:01:09.400Z,23.80
2022-08-11T18:03:40.638Z,23.70
2022-08-11T18:06:12.897Z,23.70
2022-08-11T18:09:01.755Z,23.50
2022-08-11T18:12:09.994Z,23.60
2022-08-11T18:14:54.410Z,23.60
2022-08-11T18:17:39.848Z,23.50
2022-08-11T18:20:27.924Z,23.40
2022-08-11T18:23:13.378Z,23.40
2022-08-11T18:26:01.240Z,23.20
2022-08-11T18:28:48.180Z,23.20
2022-08-11T18:31:34.445Z,23.00
2022-08-11T18:34:22.995Z,23.00
2022-08-11T18:37:20.582Z,23.00
2022-08-11T18:40:12.563Z,22.80
2022-08-11T18:42:58.119Z,22.70
2022-08-11T18:45:45.641Z,22.60
2022-08-11T18:48:33.986Z,22.50
2022-08-11T18:51:31.152Z,22.40
2022-08-11T18:54:27.639Z,22.40
2022-08-11T18:57:13.341Z,22.30
2022-08-11T18:59:59.296Z,22.30
2022-08-11T19:02:49.236Z,22.20
2022-08-11T19:06:05.923Z,22.10
2022-08-11T19:08:41.983Z,22.10
2022-08-11T19:11:28.513Z,22.10
2022-08-11T19:14:14.307Z,21.90
2022-08-11T19:16:59.949Z,21.90
2022-08-11T19:19:47.472Z,21.70
2022-08-11T19:22:33.422Z,21.70
2022-08-11T19:25:22.133Z,21.60
2022-08-11T19:28:12.304Z,21.60
2022-08-11T19:30:57.875Z,21.60
2022-08-11T19:34:02.971Z,21.50
2022-08-11T19:36:49.210Z,21.50
2022-08-11T19:39:34.858Z,21.40
2022-08-11T19:42:20.152Z,21.30
2022-08-11T19:45:06.979Z,21.30
2022-08-11T19:48:08.029Z,21.20
2022-08-11T19:50:58.016Z,21.10
2022-08-11T19:53:43.499Z,21.10
2022-08-11T19:56:29.040Z,21.10
2022-08-11T19:59:14.168Z,21.00
2022-08-11T20:02:13.346Z,20.90
2022-08-11T20:04:59.512Z,20.90
2022-08-11T20:07:44.997Z,20.70
2022-08-11T20:10:30.480Z,20.80
2022-08-11T20:13:21.244Z,20.70
2022-08-11T20:16:06.864Z,20.70
2022-08-11T20:18:53.677Z,20.40
2022-08-11T20:21:39.142Z,20.50
2022-08-11T20:24:24.930Z,20.40
2022-08-11T20:27:24.144Z,20.40
2022-08-11T20:30:10.403Z,20.40
2022-08-11T20:32:55.703Z,20.40
2022-08-11T20:35:42.655Z,20.30
2022-08-11T20:38:28.221Z,20.20
2022-08-11T20:41:13.845Z,20.10
2022-08-11T20:44:05.977Z,20.10
2022-08-11T20:46:54.576Z,20.10
2022-08-11T20:52:50.277Z,20.00
2022-08-11T20:55:46.215Z,19.90
2022-08-11T21:01:43.211Z,19.90
2022-08-11T21:04:28.408Z,19.80
2022-08-11T21:07:22.833Z,19.70
2022-08-11T21:10:22.730Z,19.70
2022-08-11T21:13:25.278Z,19.70
2022-08-11T21:16:16.389Z,19.60
2022-08-11T21:19:11.400Z,19.70
2022-08-11T21:21:56.824Z,19.70
2022-08-11T21:24:47.005Z,19.70
2022-08-11T21:27:34.912Z,19.50
2022-08-11T21:30:20.461Z,19.50
2022-08-11T21:33:06.017Z,19.40
2022-08-11T21:35:51.585Z,19.30
2022-08-11T21:38:37.050Z,19.30
2022-08-11T21:41:22.415Z,19.20
2022-08-11T21:44:09.481Z,19.20
2022-08-11T21:46:55.174Z,19.20
2022-08-11T21:49:40.793Z,19.20
2022-08-11T21:52:26.177Z,19.30
2022-08-11T21:55:11.632Z,19.20
2022-08-11T21:57:59.292Z,19.10
2022-08-11T22:00:46.070Z,19.10
2022-08-11T22:03:31.378Z,18.90
2022-08-11T22:06:27.938Z,18.90
2022-08-11T22:09:13.432Z,18.80
2022-08-11T22:12:34.017Z,18.80
2022-08-11T22:15:04.296Z,18.90
2022-08-11T22:17:55.883Z,18.60
2022-08-11T22:20:43.633Z,18.60
2022-08-11T22:23:36.013Z,18.70
2022-08-11T22:26:21.746Z,18.50
2022-08-11T22:29:08.001Z,18.40
2022-08-11T22:31:54.042Z,18.30
2022-08-11T22:34:52.804Z,18.30
2022-08-11T22:37:38.991Z,18.20
2022-08-11T22:40:25.869Z,18.30
2022-08-11T22:43:11.126Z,18.40
2022-08-11T22:45:56.649Z,18.20
2022-08-11T22:48:42.167Z,18.20
2022-08-11T22:51:29.013Z,18.20
2022-08-11T22:54:14.543Z,18.30
2022-08-11T22:56:59.884Z,18.30
2022-08-11T22:59:45.532Z,18.20
2022-08-11T23:02:31.240Z,18.20
2022-08-11T23:05:16.795Z,18.20
2022-08-11T23:08:03.769Z,18.10
2022-08-11T23:10:49.321Z,18.10
2022-08-11T23:13:34.923Z,18.20
2022-08-11T23:16:20.473Z,18.20
2022-08-11T23:19:05.858Z,18.30
2022-08-11T23:21:51.864Z,18.20
2022-08-11T23:24:38.975Z,18.00
2022-08-11T23:27:24.954Z,17.90
2022-08-11T23:30:10.328Z,17.80
2022-08-11T23:32:55.812Z,17.80
2022-08-11T23:35:54.874Z,17.80
2022-08-11T23:38:41.941Z,17.70
2022-08-11T23:41:28.754Z,17.60
2022-08-11T23:44:14.357Z,17.60
2022-08-11T23:46:59.913Z,17.50
2022-08-11T23:49:45.511Z,17.30
2022-08-11T23:52:31.084Z,17.10
2022-08-11T23:55:16.547Z,17.00
2022-08-11T23:58:03.386Z,17.00
